createdAt,value
2023-02-05T00:01:31.909Z,8.04
2023-02-05T00:03:59.459Z,8.04
2023-02-05T00:06:26.975Z,8.01
2023-02-05T00:08:54.400Z,7.98
2023-02-05T00:11:21.804Z,7.98
2023-02-05T00:13:49.187Z,8.00
2023-02-05T00:16:18.370Z,7.99
2023-02-05T00:18:45.969Z,8.01
2023-02-05T00:21:13.770Z,7.96
2023-02-05T00:23:41.254Z,7.95
2023-02-05T00:26:10.465Z,7.95
2023-02-05T00:28:38.044Z,8.01
2023-02-05T00:31:16.242Z,8.04
2023-02-05T00:33:43.997Z,8.06
2023-02-05T00:36:12.890Z,8.06
2023-02-05T00:38:40.765Z,8.04
2023-02-05T00:41:08.204Z,8.03
2023-02-05T00:43:35.619Z,8.04
2023-02-05T00:46:03.082Z,8.03
2023-02-05T00:48:30.539Z,8.05
2023-02-05T00:50:57.973Z,8.02
2023-02-05T00:53:26.014Z,7.99
2023-02-05T00:55:53.457Z,8.04
2023-02-05T00:58:21.136Z,8.07
2023-02-05T01:00:48.811Z,7.96
2023-02-05T01:03:16.217Z,8.09
2023-02-05T01:05:43.637Z,8.07
2023-02-05T01:08:12.153Z,8.09
2023-02-05T01:10:39.822Z,8.16
2023-02-05T01:13:07.744Z,8.12
2023-02-05T01:15:35.573Z,7.84
2023-02-05T01:18:03.185Z,7.80
2023-02-05T01:20:30.683Z,7.86
2023-02-05T01:22:58.124Z,7.82
2023-02-05T01:25:25.511Z,7.84
2023-02-05T01:27:52.930Z,7.86
2023-02-05T01:30:20.389Z,7.82
2023-02-05T01:32:47.855Z,7.78
2023-02-05T01:35:15.497Z,7.72
2023-02-05T01:37:43.045Z,7.77
2023-02-05T01:40:12.739Z,7.77
2023-02-05T01:42:40.220Z,7.69
2023-02-05T01:45:22.694Z,7.69
2023-02-05T01:47:50.779Z,7.73
2023-02-05T01:50:20.280Z,7.71
2023-02-05T01:52:47.733Z,7.74
2023-02-05T01:55:15.756Z,7.75
2023-02-05T01:57:43.343Z,7.73
2023-02-05T02:00:11.218Z,7.71
2023-02-05T02:02:39.213Z,7.67
2023-02-05T02:05:11.391Z,7.70
2023-02-05T02:07:39.294Z,7.70
2023-02-05T02:10:07.403Z,7.70
2023-02-05T02:12:36.529Z,7.75
2023-02-05T02:15:15.508Z,7.72
2023-02-05T02:17:45.809Z,7.69
2023-02-05T02:20:15.527Z,7.73
2023-02-05T02:22:48.714Z,7.77
2023-02-05T02:25:35.340Z,7.75
2023-02-05T02:28:04.842Z,7.68
2023-02-05T02:30:38.707Z,7.63
2023-02-05T02:33:10.547Z,7.67
2023-02-05T02:35:50.028Z,7.68
2023-02-05T02:38:28.950Z,7.66
2023-02-05T02:40:59.485Z,7.51
2023-02-05T02:43:47.111Z,7.52
2023-02-05T02:46:34.343Z,7.60
2023-02-05T02:49:10.392Z,7.51
2023-02-05T02:51:39.660Z,7.46
2023-02-05T02:54:09.033Z,7.31
2023-02-05T02:56:38.672Z,7.21
2023-02-05T02:59:14.601Z,7.20
2023-02-05T03:01:49.612Z,7.19
2023-02-05T03:04:25.307Z,7.18
2023-02-05T03:06:54.609Z,7.21
2023-02-05T03:09:27.812Z,7.23
2023-02-05T03:11:55.244Z,7.24
2023-02-05T03:14:25.374Z,7.30
2023-02-05T03:16:56.237Z,7.31
2023-02-05T03:19:25.250Z,7.33
2023-02-05T03:21:57.602Z,7.33
2023-02-05T03:24:25.219Z,7.30
2023-02-05T03:26:52.681Z,7.39
2023-02-05T03:29:26.310Z,7.43
2023-02-05T03:31:56.888Z,7.43
2023-02-05T03:34:36.429Z,7.42
2023-02-05T03:37:06.666Z,7.35
2023-02-05T03:39:56.798Z,7.49
2023-02-05T03:42:34.894Z,7.52
2023-02-05T03:45:12.138Z,7.49
2023-02-05T03:47:51.756Z,7.45
2023-02-05T03:50:30.859Z,7.31
2023-02-05T03:53:00.716Z,7.39
2023-02-05T03:55:29.741Z,7.38
2023-02-05T03:58:09.073Z,7.42
2023-02-05T04:00:36.805Z,7.44
2023-02-05T04:03:04.766Z,7.41
2023-02-05T04:05:32.447Z,7.39
2023-02-05T04:08:00.025Z,7.30
2023-02-05T04:10:27.444Z,7.29
2023-02-05T04:12:56.757Z,7.25
2023-02-05T04:15:26.498Z,7.26
2023-02-05T04:17:58.260Z,7.31
2023-02-05T04:20:28.639Z,7.49
2023-02-05T04:22:56.086Z,7.47
2023-02-05T04:25:23.545Z,7.47
2023-02-05T04:27:51.113Z,7.44
2023-02-05T04:30:18.798Z,7.47
2023-02-05T04:32:46.343Z,7.53
2023-02-05T04:35:13.796Z,7.40
2023-02-05T04:37:41.248Z,7.30
2023-02-05T04:40:09.228Z,7.38
2023-02-05T04:42:36.623Z,7.38
2023-02-05T04:45:06.912Z,7.41
2023-02-05T04:47:39.366Z,7.30
2023-02-05T04:50:09.555Z,7.28
2023-02-05T04:52:36.955Z,7.35
2023-02-05T04:55:04.441Z,7.30
2023-02-05T04:57:32.104Z,7.22
2023-02-05T04:59:59.534Z,7.33
2023-02-05T05:02:27.048Z,7.15
2023-02-05T05:04:54.532Z,7.24
2023-02-05T05:07:21.950Z,7.08
2023-02-05T05:09:51.414Z,7.13
2023-02-05T05:12:19.774Z,7.20
2023-02-05T05:14:54.117Z,7.12
2023-02-05T05:17:23.107Z,7.07
2023-02-05T05:19:53.137Z,7.04
2023-02-05T05:22:21.265Z,7.02
2023-02-05T05:24:48.686Z,7.00
2023-02-05T05:27:16.649Z,6.96
2023-02-05T05:29:44.046Z,6.98
2023-02-05T05:32:11.433Z,6.92
2023-02-05T05:34:38.960Z,6.78
2023-02-05T05:37:06.404Z,6.63
2023-02-05T05:39:51.707Z,6.49
2023-02-05T05:42:36.606Z,6.43
2023-02-05T05:45:06.110Z,6.30
2023-02-05T05:47:35.037Z,6.28
2023-02-05T05:50:03.138Z,6.27
2023-02-05T05:52:32.958Z,6.31
2023-02-05T05:55:00.484Z,6.26
2023-02-05T05:57:28.028Z,6.21
2023-02-05T05:59:55.455Z,6.19
2023-02-05T06:02:22.865Z,6.27
2023-02-05T06:04:50.479Z,6.18
2023-02-05T06:07:18.100Z,6.26
2023-02-05T06:09:45.539Z,6.19
2023-02-05T06:12:12.972Z,6.22
2023-02-05T06:14:48.307Z,6.09
2023-02-05T06:17:20.511Z,6.22
2023-02-05T06:19:50.993Z,6.19
2023-02-05T06:22:22.325Z,6.17
2023-02-05T06:24:49.768Z,6.28
2023-02-05T06:27:17.801Z,6.20
2023-02-05T06:29:45.201Z,6.13
2023-02-05T06:32:12.768Z,6.09
2023-02-05T06:34:40.196Z,6.10
2023-02-05T06:37:08.138Z,6.03
2023-02-05T06:39:35.558Z,6.15
2023-02-05T06:42:03.016Z,6.19
2023-02-05T06:44:30.551Z,6.14
2023-02-05T06:46:58.009Z,6.11
2023-02-05T06:49:25.484Z,6.13
2023-02-05T06:51:53.114Z,6.25
2023-02-05T06:54:20.767Z,6.16
2023-02-05T06:56:48.732Z,6.15
2023-02-05T06:59:16.338Z,6.15
2023-02-05T07:01:43.885Z,6.24
2023-02-05T07:04:11.473Z,6.15
2023-02-05T07:06:39.015Z,6.09
2023-02-05T07:09:06.594Z,6.19
2023-02-05T07:11:34.278Z,6.20
2023-02-05T07:14:02.689Z,6.14
2023-02-05T07:16:33.256Z,6.18
2023-02-05T07:19:00.847Z,6.15
2023-02-05T07:21:28.447Z,6.11
2023-02-05T07:23:56.330Z,6.15
2023-02-05T07:26:23.860Z,6.10
2023-02-05T07:28:51.424Z,6.07
2023-02-05T07:31:19.687Z,6.02
2023-02-05T07:33:47.638Z,5.97
2023-02-05T07:36:17.315Z,6.05
2023-02-05T07:38:45.531Z,5.98
2023-02-05T07:41:14.420Z,5.95
2023-02-05T07:43:42.499Z,5.95
2023-02-05T07:46:14.482Z,6.14
2023-02-05T07:48:42.006Z,6.08
2023-02-05T07:51:09.583Z,6.01
2023-02-05T07:53:37.170Z,5.99
2023-02-05T07:56:05.405Z,6.05
2023-02-05T07:58:32.958Z,6.14
2023-02-05T08:01:06.972Z,6.18
2023-02-05T08:03:34.744Z,6.28
2023-02-05T08:06:09.030Z,6.33
2023-02-05T08:08:36.563Z,6.29
2023-02-05T08:11:05.641Z,6.26
2023-02-05T08:13:33.592Z,6.28
2023-02-05T08:16:01.288Z,6.28
2023-02-05T08:18:28.815Z,6.39
2023-02-05T08:20:56.345Z,6.38
2023-02-05T08:23:24.191Z,6.46
2023-02-05T08:25:55.728Z,6.45
2023-02-05T08:28:23.905Z,6.59
2023-02-05T08:30:51.514Z,6.70
2023-02-05T08:33:19.506Z,6.77
2023-02-05T08:35:47.096Z,6.77
2023-02-05T08:38:14.637Z,6.93
2023-02-05T08:40:42.284Z,6.87
2023-02-05T08:43:09.897Z,7.04
2023-02-05T08:45:37.815Z,6.96
2023-02-05T08:48:05.772Z,7.01
2023-02-05T08:50:33.312Z,7.06
2023-02-05T08:53:00.840Z,7.09
2023-02-05T08:55:28.482Z,7.00
2023-02-05T08:57:55.968Z,7.00
2023-02-05T09:00:23.683Z,7.02
2023-02-05T09:02:51.145Z,7.08
2023-02-05T09:05:18.855Z,7.10
2023-02-05T09:07:46.418Z,7.22
2023-02-05T09:10:14.236Z,7.20
2023-02-05T09:12:41.833Z,7.18
2023-02-05T09:15:10.138Z,7.26
2023-02-05T09:17:37.629Z,7.22
2023-02-05T09:20:05.490Z,7.17
2023-02-05T09:22:33.009Z,7.14
2023-02-05T09:25:00.578Z,7.22
2023-02-05T09:27:28.650Z,7.26
2023-02-05T09:29:56.174Z,7.43
2023-02-05T09:32:23.863Z,7.31
2023-02-05T09:34:51.416Z,7.45
2023-02-05T09:37:18.919Z,7.41
2023-02-05T09:40:19.471Z,7.33
2023-02-05T09:42:42.035Z,7.53
2023-02-05T09:45:28.169Z,7.47
2023-02-05T09:47:55.623Z,7.48
2023-02-05T09:50:27.782Z,7.39
2023-02-05T09:52:57.849Z,7.33
2023-02-05T09:55:27.421Z,7.41
2023-02-05T09:57:56.198Z,7.52
2023-02-05T10:00:29.572Z,7.53
2023-02-05T10:03:02.820Z,7.72
2023-02-05T10:05:34.091Z,7.98
2023-02-05T10:08:10.812Z,7.75
2023-02-05T10:10:44.935Z,7.78
2023-02-05T10:13:30.988Z,7.59
2023-02-05T10:16:20.074Z,7.68
2023-02-05T10:18:53.453Z,7.60
2023-02-05T10:21:20.954Z,7.73
2023-02-05T10:23:48.601Z,7.86
2023-02-05T10:26:18.202Z,8.05
2023-02-05T10:28:57.944Z,8.05
2023-02-05T10:31:42.531Z,7.97
2023-02-05T10:34:19.171Z,8.16
2023-02-05T10:36:50.121Z,8.10
2023-02-05T10:39:19.307Z,8.06
2023-02-05T10:41:57.556Z,7.97
2023-02-05T10:44:32.056Z,8.14
2023-02-05T10:47:07.664Z,8.23
2023-02-05T10:49:49.850Z,8.04
2023-02-05T10:52:17.820Z,7.91
2023-02-05T10:54:46.264Z,7.88
2023-02-05T10:57:15.057Z,7.82
2023-02-05T10:59:59.871Z,7.67
2023-02-05T11:02:34.524Z,7.72
2023-02-05T11:05:16.394Z,7.98
2023-02-05T11:07:48.030Z,8.06
2023-02-05T11:10:15.658Z,8.30
2023-02-05T11:12:44.714Z,8.21
2023-02-05T11:15:23.282Z,8.44
2023-02-05T11:17:52.176Z,8.36
2023-02-05T11:20:19.713Z,8.30
2023-02-05T11:22:47.433Z,8.26
2023-02-05T11:25:20.460Z,8.38
2023-02-05T11:27:55.388Z,8.23
2023-02-05T11:30:52.086Z,8.62
2023-02-05T11:33:24.318Z,8.29
2023-02-05T11:35:54.680Z,8.18
2023-02-05T11:38:40.903Z,8.37
2023-02-05T11:41:09.321Z,8.52
2023-02-05T11:43:39.282Z,8.42
2023-02-05T11:46:15.757Z,8.50
2023-02-05T11:49:01.697Z,8.32
2023-02-05T11:51:49.475Z,8.46
2023-02-05T11:54:34.163Z,8.54
2023-02-05T11:57:20.730Z,8.25
2023-02-05T11:59:57.181Z,8.53
2023-02-05T12:02:29.374Z,8.49
2023-02-05T12:05:19.996Z,8.61
2023-02-05T12:08:00.076Z,8.29
2023-02-05T12:10:45.706Z,8.46
2023-02-05T12:13:31.774Z,8.40
2023-02-05T12:16:03.937Z,8.40
2023-02-05T12:18:37.153Z,8.12
2023-02-05T12:21:30.847Z,8.18
2023-02-05T12:24:09.336Z,8.37
2023-02-05T12:26:36.815Z,8.26
2023-02-05T12:29:19.909Z,8.10
2023-02-05T12:31:53.116Z,8.29
2023-02-05T12:34:24.673Z,8.31
2023-02-05T12:36:55.119Z,8.40
2023-02-05T12:39:22.678Z,8.39
2023-02-05T12:42:16.652Z,8.32
2023-02-05T12:44:53.070Z,8.38
2023-02-05T12:47:39.262Z,8.45
2023-02-05T12:50:19.204Z,8.57
2023-02-05T12:52:49.479Z,8.21
2023-02-05T12:55:28.111Z,8.33
2023-02-05T12:57:59.523Z,8.31
2023-02-05T13:00:34.426Z,8.35
2023-02-05T13:03:08.510Z,8.65
2023-02-05T13:05:39.410Z,8.39
2023-02-05T13:08:06.948Z,8.40
2023-02-05T13:10:42.678Z,8.21
2023-02-05T13:13:12.937Z,8.36
2023-02-05T13:15:45.733Z,8.21
2023-02-05T13:18:13.180Z,8.06
2023-02-05T13:21:00.126Z,8.10
2023-02-05T13:23:46.317Z,8.17
2023-02-05T13:26:33.217Z,8.49
2023-02-05T13:29:13.019Z,8.40
2023-02-05T13:31:48.308Z,8.36
2023-02-05T13:34:17.242Z,8.33
2023-02-05T13:37:00.436Z,8.25
2023-02-05T13:39:37.169Z,8.37
2023-02-05T13:42:04.745Z,8.16
2023-02-05T13:44:40.874Z,8.23
2023-02-05T13:47:08.473Z,7.96
2023-02-05T13:49:42.132Z,8.12
2023-02-05T13:52:28.294Z,8.07
2023-02-05T13:54:58.553Z,7.90
2023-02-05T13:57:31.888Z,7.80
2023-02-05T13:59:59.649Z,7.92
2023-02-05T14:02:32.760Z,7.85
2023-02-05T14:05:01.780Z,7.95
2023-02-05T14:07:32.514Z,8.07
2023-02-05T14:10:02.587Z,7.88
2023-02-05T14:12:31.708Z,7.96
2023-02-05T14:15:17.413Z,8.01
2023-02-05T14:17:44.896Z,7.87
2023-02-05T14:20:27.781Z,7.81
2023-02-05T14:23:01.057Z,7.87
2023-02-05T14:25:38.090Z,7.81
2023-02-05T14:28:25.617Z,7.98
2023-02-05T14:30:58.762Z,8.01
2023-02-05T14:33:42.991Z,8.09
2023-02-05T14:36:16.886Z,8.05
2023-02-05T14:38:45.963Z,7.98
2023-02-05T14:41:15.550Z,7.83
2023-02-05T14:43:46.515Z,7.84
2023-02-05T14:46:40.646Z,7.62
2023-02-05T14:49:21.293Z,7.75
2023-02-05T14:52:00.261Z,7.76
2023-02-05T14:54:32.930Z,7.81
2023-02-05T14:57:09.368Z,7.60
2023-02-05T14:59:52.318Z,7.56
2023-02-05T15:02:40.716Z,7.61
2023-02-05T15:05:14.710Z,7.66
2023-02-05T15:07:43.229Z,7.45
2023-02-05T15:10:15.627Z,7.54
2023-02-05T15:12:58.266Z,7.44
2023-02-05T15:15:30.795Z,7.57
2023-02-05T15:18:18.553Z,7.39
2023-02-05T15:20:47.559Z,7.43
2023-02-05T15:23:19.566Z,7.38
2023-02-05T15:25:52.897Z,7.36
2023-02-05T15:28:25.874Z,7.43
2023-02-05T15:31:14.955Z,7.47
2023-02-05T15:34:00.971Z,7.32
2023-02-05T15:36:33.246Z,7.28
2023-02-05T15:39:20.868Z,7.28
2023-02-05T15:41:48.439Z,7.13
2023-02-05T15:44:29.273Z,7.35
2023-02-05T15:46:57.934Z,7.26
2023-02-05T15:49:45.662Z,7.27
2023-02-05T15:52:22.898Z,7.21
2023-02-05T15:54:51.478Z,7.21
2023-02-05T15:57:23.821Z,7.10
2023-02-05T15:59:52.861Z,7.14
2023-02-05T16:02:25.103Z,7.20
2023-02-05T16:05:00.091Z,7.08
2023-02-05T16:07:29.383Z,7.02
2023-02-05T16:10:01.501Z,7.04
2023-02-05T16:12:30.463Z,7.03
2023-02-05T16:14:58.866Z,6.96
2023-02-05T16:17:29.409Z,6.86
2023-02-05T16:20:12.728Z,6.83
2023-02-05T16:22:40.623Z,6.68
2023-02-05T16:25:09.823Z,6.62
2023-02-05T16:27:42.065Z,6.62
2023-02-05T16:30:21.200Z,6.65
2023-02-05T16:32:49.076Z,6.55
2023-02-05T16:35:28.208Z,6.55
2023-02-05T16:37:55.924Z,6.62
2023-02-05T16:40:31.632Z,6.48
2023-02-05T16:42:59.392Z,6.49
2023-02-05T16:45:29.108Z,6.44
2023-02-05T16:48:22.392Z,6.51
2023-02-05T16:50:50.187Z,6.50
2023-02-05T16:53:21.200Z,6.45
2023-02-05T16:55:49.633Z,6.42
2023-02-05T16:58:22.753Z,6.56
2023-02-05T17:01:00.821Z,6.45
2023-02-05T17:03:35.326Z,6.42
2023-02-05T17:06:03.939Z,6.42
2023-02-05T17:08:34.095Z,6.51
2023-02-05T17:11:06.353Z,6.07
2023-02-05T17:13:33.762Z,6.09
2023-02-05T17:16:24.886Z,6.03
2023-02-05T17:19:15.408Z,6.17
2023-02-05T17:21:42.876Z,6.16
2023-02-05T17:24:10.565Z,5.86
2023-02-05T17:26:40.977Z,5.80
2023-02-05T17:29:09.375Z,5.80
2023-02-05T17:31:38.559Z,5.80
2023-02-05T17:34:06.678Z,5.68
2023-02-05T17:36:34.081Z,5.75
2023-02-05T17:39:01.584Z,5.75
2023-02-05T17:41:48.991Z,5.87
2023-02-05T17:44:17.297Z,5.99
2023-02-05T17:46:45.078Z,6.02
2023-02-05T17:49:12.537Z,5.86
2023-02-05T17:51:42.373Z,6.07
2023-02-05T17:54:14.136Z,6.19
2023-02-05T17:56:44.390Z,6.19
2023-02-05T17:59:15.838Z,6.21
2023-02-05T18:01:43.548Z,6.15
2023-02-05T18:04:12.004Z,6.13
2023-02-05T18:06:40.512Z,6.25
2023-02-05T18:09:08.001Z,6.15
2023-02-05T18:11:35.824Z,6.18
2023-02-05T18:14:03.278Z,6.21
2023-02-05T18:16:31.147Z,6.24
2023-02-05T18:18:58.628Z,6.29
2023-02-05T18:21:26.225Z,6.38
2023-02-05T18:23:53.638Z,6.38
2023-02-05T18:26:21.499Z,6.29
2023-02-05T18:28:49.625Z,6.30
2023-02-05T18:31:17.156Z,6.38
2023-02-05T18:33:44.750Z,6.48
2023-02-05T18:44:28.742Z,6.51
2023-02-05T18:46:56.212Z,6.51
2023-02-05T18:49:23.723Z,6.40
2023-02-05T18:51:51.220Z,6.30
2023-02-05T18:54:18.646Z,6.26
2023-02-05T18:56:46.140Z,6.19
2023-02-05T18:59:15.369Z,6.15
2023-02-05T19:01:42.965Z,6.10
2023-02-05T19:04:12.291Z,6.06
2023-02-05T19:06:43.499Z,6.04
2023-02-05T19:09:11.150Z,5.95
2023-02-05T19:11:40.952Z,5.89
2023-02-05T19:14:16.593Z,5.74
2023-02-05T19:16:44.624Z,5.82
2023-02-05T19:19:14.272Z,5.76
2023-02-05T19:21:42.388Z,5.83
2023-02-05T19:24:10.505Z,5.77
2023-02-05T19:26:38.961Z,5.72
2023-02-05T19:29:08.674Z,5.52
2023-02-05T19:31:37.631Z,5.62
2023-02-05T19:34:05.529Z,5.66
2023-02-05T19:36:33.327Z,5.74
2023-02-05T19:39:01.461Z,5.68
2023-02-05T19:41:29.303Z,5.20
2023-02-05T19:43:58.011Z,5.52
2023-02-05T19:46:29.105Z,5.44
2023-02-05T19:48:56.960Z,5.25
2023-02-05T19:51:24.377Z,5.39
2023-02-05T19:53:51.809Z,5.36
2023-02-05T19:56:20.778Z,5.26
2023-02-05T19:58:52.436Z,5.36
2023-02-05T20:01:30.412Z,5.40
2023-02-05T20:03:59.344Z,5.41
2023-02-05T20:06:28.302Z,5.37
2023-02-05T20:08:56.169Z,5.21
2023-02-05T20:11:23.631Z,5.15
2023-02-05T20:13:51.043Z,5.13
2023-02-05T20:16:20.101Z,5.08
2023-02-05T20:18:48.693Z,5.04
2023-02-05T20:21:18.586Z,5.07
2023-02-05T20:23:46.542Z,5.09
2023-02-05T20:26:14.577Z,5.06
2023-02-05T20:28:56.584Z,4.92
2023-02-05T20:31:41.280Z,5.08
2023-02-05T20:34:10.224Z,4.96
2023-02-05T20:36:38.093Z,4.88
2023-02-05T20:39:07.358Z,4.78
2023-02-05T20:41:35.200Z,4.83
2023-02-05T20:44:03.165Z,4.84
2023-02-05T20:46:31.197Z,4.81
2023-02-05T20:48:59.872Z,4.79
2023-02-05T20:51:27.276Z,4.84
2023-02-05T20:53:58.070Z,4.86
2023-02-05T20:56:27.233Z,4.94
2023-02-05T20:58:54.959Z,4.93
2023-02-05T21:01:23.894Z,4.85
2023-02-05T21:03:52.989Z,4.85
2023-02-05T21:06:21.484Z,4.83
2023-02-05T21:08:49.488Z,4.82
2023-02-05T21:11:17.746Z,4.76
2023-02-05T21:13:46.350Z,4.74
2023-02-05T21:16:14.422Z,4.71
2023-02-05T21:18:41.884Z,4.57
2023-02-05T21:21:10.482Z,4.54
2023-02-05T21:23:38.354Z,4.51
2023-02-05T21:26:06.325Z,4.44
2023-02-05T21:28:34.160Z,4.44
2023-02-05T21:31:06.285Z,4.39
2023-02-05T21:33:34.184Z,4.31
2023-02-05T21:36:05.784Z,4.19
2023-02-05T21:38:36.751Z,4.24
2023-02-05T21:41:12.369Z,4.15
2023-02-05T21:43:40.257Z,4.18
2023-02-05T21:46:09.535Z,4.08
2023-02-05T21:48:37.126Z,3.96
2023-02-05T21:51:12.167Z,3.92
2023-02-05T21:53:40.243Z,4.02
2023-02-05T21:56:08.507Z,4.05
2023-02-05T21:58:36.714Z,4.07
2023-02-05T22:01:14.813Z,4.06
2023-02-05T22:03:43.224Z,4.06
2023-02-05T22:06:10.968Z,4.13
2023-02-05T22:08:39.468Z,4.14
2023-02-05T22:11:08.030Z,4.20
2023-02-05T22:13:36.122Z,4.22
2023-02-05T22:16:04.419Z,4.30
2023-02-05T22:18:31.846Z,4.32
2023-02-05T22:21:04.863Z,4.28
2023-02-05T22:23:32.297Z,4.24
2023-02-05T22:25:59.886Z,4.25
2023-02-05T22:28:27.613Z,4.13
2023-02-05T22:31:08.386Z,4.14
2023-02-05T22:33:36.977Z,4.07
2023-02-05T22:36:04.733Z,4.08
2023-02-05T22:38:33.087Z,4.11
2023-02-05T22:41:01.012Z,4.13
2023-02-05T22:43:28.905Z,4.16
2023-02-05T22:45:56.741Z,4.15
2023-02-05T22:48:24.186Z,4.04
2023-02-05T22:50:51.755Z,4.10
2023-02-05T22:53:19.142Z,4.19
2023-02-05T22:55:46.621Z,4.13
2023-02-05T22:58:14.038Z,4.18
2023-02-05T23:00:41.449Z,4.14
2023-02-05T23:03:08.917Z,4.12
2023-02-05T23:05:36.542Z,4.18
2023-02-05T23:08:04.241Z,4.19
2023-02-05T23:10:31.646Z,4.22
2023-02-05T23:12:59.086Z,4.13
2023-02-05T23:15:26.538Z,4.08
2023-02-05T23:17:53.991Z,4.08
2023-02-05T23:20:21.435Z,4.16
2023-02-05T23:22:48.928Z,4.14
2023-02-05T23:25:16.437Z,4.06
2023-02-05T23:27:43.918Z,4.14
2023-02-05T23:30:11.842Z,4.11
2023-02-05T23:32:39.662Z,4.11
2023-02-05T23:35:07.970Z,4.22
2023-02-05T23:37:35.836Z,4.14
2023-02-05T23:40:03.282Z,4.26
2023-02-05T23:42:30.683Z,4.26
2023-02-05T23:44:58.124Z,4.26
2023-02-05T23:47:25.540Z,4.28
2023-02-05T23:49:52.947Z,4.28
2023-02-05T23:52:20.377Z,4.25
2023-02-05T23:54:47.800Z,4.25
2023-02-05T23:57:15.268Z,4.28
2023-02-05T23:59:42.705Z,4.34
